Hauptseite
METAR-TAF:

METAR-TAF

Flughäfen :

Shizuhama, Japan

Breite: 34-49N, Länge: 138-18E, Höhe: 7 m

Beobachtung

Neuester Wetterbericht von vor 4 Stunden und 42 Minuten, um 03:17 UTC
Wind 3 kt aus Nord, variierte zwischen Nordwest und Nordost
Temperatur 19°C
Luftfeuchtigkeit 100%
Luftdruck 1004 hPa
Sichtweite: 3000 m
Leicht bewölkt in der Höhe von 300 ft
Aufgelockert bewölkt in der Höhe von 700 ft
Durchbrochene Bewölkung in der Höhe von 2000 ft
Aufgelockert bewölkt in der Höhe von 2500 ft, Towering cumulus.
Regenschauer, feuchter Dunst

METAR: RJNY 180317Z 01003KT 320V050 3000 R09/0800VP1800U SHRA BR FEW003 SCT007 BKN020 SCT025TCU 19/19 Q1004 RMK 1ST003 3ST007 6CU020 4TCU025 A2967 R1300 TCU OHD MOV NE

Zeit: 16:59 (07:59 UTC)


TAF: fehlend

Wetterbeobachtungen und Prognosen von mehr als 4000 Flughäfen (METAR und TAF Bericht).

Die verfügbaren Stationen werden durch gelbe und rote Markierungen auf der Karte dargestellt.

Führen Sie die Maus auf sie, um den Namen der Station zu sehen.

Darauf klicken, um die Beobachtung von Wetterbeobachtungen und Prognosen zu sehen.

Um die Karte zu ändern : klicken Sie auf den grünen Tasten mit einem schwarzen Kreuz Zum Vergrößern, auf den grünen Button mit einem Gedankenstrich zu verkleinern, oder auf die grünen Pfeile für benachbarte Karten.


METAR-TAF: